LiveATC.Net - Listen to live air traffic control over the Internet!


ICAO: KCON  IATA: CON   Airport: Concord Municipal Airport
City: Concord   State/Province: New Hampshire
Country: United States   Continent: North America
KCON METAR Weather: KCON 161051Z AUTO 28007KT 10SM CLR M05/M15 A3013 RMK AO2 SLP208 T10501150
KCON Flight Activity (FlightAware)
KCON Airport Info   (iFlightPlanner)
KCON VFR Sectional Chart   (iFlightPlanner) 
KCON IFR Low Chart   (iFlightPlanner) 

MA/NH/RI/CT Area CTAF
Feed Status: UP   Listeners: 0
Listen in your browser - HTML5 player (in browser, HTML5)
Click here to listen with your own player (launches your MP3 player)
Archive Access: MA/NH/RI/CT Area CTAF
FacilityFrequency
Air-to-Air122.750
Bridgeport Flight Service122.200
CTAF122.700
CTAF122.800
CTAF122.900
CTAF123.000
Emergency/Guard121.500

NOTICE

Unauthorized use prohibited. See LiveATC.net Terms of Service


Airport/ARTCC Code
Frequency Search
(e.g., 124.400, 128.75)
Site-wide search
 


Browse Feeds
Top 50 Feeds
Coverage Map
Bad Weather Areas

LiveATC FAQ
Offer LiveATC feed
Contact LiveATC.net
Press Inquiries

LiveATC on iPhone
LiveATC on Android

Windows Phone
Windows 8/10

LiveATC Mobile
(Mobile browser)

ATC Audio Archives
Interesting Recordings

LiveATC Forums


Home Page
About LiveATC.net
Make a Donation
Terms of Use
Privacy Policy

Canadian Air Freqs

AIRMETs/SIGMETs

FAA Airport Status
Nat'l Airspace Status
Arrival Demand Charts


Server Software By:
Icecast.org
Liquidsoap